Dennis Mills, Louisiana
Current Conditions -  °F | °C
As of 6:53 PM on Friday 21 Nov 2014 (Local Time) from KBTR Reporting Station
Few Clouds Few Clouds  
Wind Chill: 62°   Ceiling: Unl
Heat Index: 62°   Visibility: 10mi
Dew Point: 52°   Wind: 10mph
Humidity: 70%   Direction: 110°ESE
Pressure: 30.25"   Gusts: NA
Location:  30.421°N, 90.9008°W
Report Text: KBTR 220053Z 11009KT 10SM FEW110 17/11 A3025 RMK AO2 SLP244 T01670111
Loading
Personal Weather Stations






























Interactive Weather Map New forecast layout! Learn more

10-Day Weather Forecast

Advertisements
Track Severe Weather on mobile